Buoy 41560

sailwx.info

Track history (hours):
 
Tides and Currents Weather Stations Pressure Air Temp Water Temp Dewpoint Dewpoint Depression Visibility Wind Speed Wind Dir Waves Ship Positions

Drifting buoy 41560

Last reported at 2015-Apr-19 04:00 UTC. Time now 2015-Apr-19 04:41 UTC.
Position N 30°19' W 027°37'.

Barometer 1022.9 mb

Date/timePositionNaut miles runAvg speedWind from/ knotsBaromVisibWave heightAir tempDewpointWater temp
2015-Apr-19 04:00N 30°19' W 027°37'8 0.5 1022.9
2015-Apr-18 11:00N 30°21' W 027°29'2 0.4 1022.5
2015-Apr-18 07:00N 30°20' W 027°27'0 0.0 1021.3
2015-Apr-18 06:00N 30°20' W 027°27'0 0.1 1021.1
2015-Apr-18 04:00N 30°20' W 027°27'7 0.6 1021.0
2015-Apr-17 16:00N 30°19' W 027°19'0 0.1 1021.6
2015-Apr-17 14:00N 30°19' W 027°19'1 1.0 1022.2
2015-Apr-17 13:00N 30°19' W 027°18'2 0.4 1022.5
2015-Apr-17 08:00N 30°17' W 027°16'1 0.8 1021.8
2015-Apr-17 07:00N 30°17' W 027°16'1 1.1 1021.7
2015-Apr-17 06:00N 30°16' W 027°15'0 0.0 1021.4
2015-Apr-17 05:00N 30°16' W 027°15'5 0.9 1021.3
2015-Apr-16 23:00N 30°13' W 027°10'1 0.3 1023.2
2015-Apr-16 19:00N 30°12' W 027°09'1 0.6 1022.2
2015-Apr-16 18:00N 30°12' W 027°10'0 0.0 1022.5
2015-Apr-16 17:00N 30°12' W 027°10'1 0.6 1022.9
2015-Apr-16 16:00N 30°12' W 027°09'1 0.5 1023.2
2015-Apr-16 13:00N 30°10' W 027°09'1 0.4 1024.5
2015-Apr-16 10:00N 30°10' W 027°08'1 0.6 1024.3
2015-Apr-16 09:00N 30°09' W 027°08'3 0.2 1023.7
2015-Apr-15 16:00N 30°06' W 027°06'0 0.4 1023.8
2015-Apr-15 15:00N 30°06' W 027°06'1 0.2 1024.1
2015-Apr-15 11:00N 30°05' W 027°06'1 0.2 1024.3
2015-Apr-15 07:00N 30°04' W 027°05'1 0.6 1023.6
2015-Apr-15 06:00N 30°04' W 027°06'1 0.3 1023.2
2015-Apr-15 03:00N 30°03' W 027°06'2 1.9 1024.4
2015-Apr-15 02:00N 30°02' W 027°04'2 0.5 1024.7
2015-Apr-14 22:00N 30°03' W 027°02'0 0.0 1025.0
2015-Apr-14 21:00N 30°03' W 027°02'1 0.7 1024.5
2015-Apr-14 19:00N 30°02' W 027°04'3 0.2 1023.8
2015-Apr-14 04:00N 30°01' W 027°01'4 0.3 1022.8
2015-Apr-13 14:00N 30°03' W 026°57'1 0.9 1023.7
2015-Apr-13 13:00N 30°04' W 026°56'0 0.3 1023.9
2015-Apr-13 12:00N 30°04' W 026°56'0 0.4 1024.0
2015-Apr-13 11:00N 30°04' W 026°56'1 0.7 1023.6
2015-Apr-13 09:00N 30°04' W 026°54'1 0.7 1023.3
2015-Apr-13 07:00N 30°04' W 026°53'0 0.2 1022.6
2015-Apr-13 05:00N 30°04' W 026°52'1 1.0 1022.4
2015-Apr-13 04:00N 30°04' W 026°51'6 0.6 1022.6
2015-Apr-12 18:00N 30°06' W 026°45'1 1.5 1021.8
2015-Apr-12 17:00N 30°07' W 026°43'1 0.1 1021.5
2015-Apr-12 08:00N 30°06' W 026°43'0 0.0 1022.1
2015-Apr-12 07:00N 30°06' W 026°43'0 0.2 1021.8
2015-Apr-12 05:00N 30°06' W 026°43'0 0.2 1022.1
2015-Apr-12 04:00N 30°06' W 026°43'1 0.3 1022.3
2015-Apr-11 23:00N 30°05' W 026°41'0 0.2 1024.2
2015-Apr-11 22:00N 30°05' W 026°42'0 0.4 1024.3
2015-Apr-11 21:00N 30°05' W 026°42'1 0.4 1023.9
2015-Apr-11 18:00N 30°04' W 026°41'0 0.5 1023.5
2015-Apr-11 17:00N 30°04' W 026°41'1 0.8 1023.7
2015-Apr-11 16:00N 30°03' W 026°41'0 0.3 1024.0
2015-Apr-11 15:00N 30°03' W 026°42'0 0.0 1024.6
2015-Apr-11 14:00N 30°03' W 026°42'2 0.6 1024.8
2015-Apr-11 11:00N 30°02' W 026°40'0 0.5 1025.8
2015-Apr-11 10:00N 30°01' W 026°40'3 0.6 1025.5
2015-Apr-11 05:00N 29°59' W 026°38'1 0.6 1025.6
2015-Apr-11 04:00N 29°58' W 026°38'3 0.6 1026.0
2015-Apr-10 22:00N 29°56' W 026°34'2 0.9 1027.0
2015-Apr-10 20:00N 29°55' W 026°34'0 0.0 1026.5
2015-Apr-10 19:00N 29°55' W 026°34'2 1.8 1026.3
2015-Apr-10 18:00N 29°55' W 026°32'0 0.5 1026.3
2015-Apr-10 17:00N 29°55' W 026°31'1 0.8 1026.5
2015-Apr-10 16:00N 29°55' W 026°32'5 0.7 1026.7
2015-Apr-10 08:00N 29°52' W 026°27'0 0.0 1026.5
2015-Apr-10 07:00N 29°52' W 026°27'1 0.5 1025.9
2015-Apr-10 05:00N 29°51' W 026°26'1 1.2 1025.5
2015-Apr-10 04:00N 29°51' W 026°24'3 0.6 1025.6
2015-Apr-09 22:00N 29°49' W 026°21'4 0.3 1026.5
2015-Apr-09 10:00N 29°48' W 026°17'0 0.2 1026.0
2015-Apr-09 08:00N 29°48' W 026°17'1 0.2 1024.8
2015-Apr-09 04:00N 29°47' W 026°16'   1024.6
Track history (hours):
 
Tides and Currents Weather Stations Pressure Air Temp Water Temp Dewpoint Dewpoint Depression Visibility Wind Speed Wind Dir Waves Ship Positions

Drifting buoy 41560

Last reported at 2015-Apr-19 04:00 UTC. Time now 2015-Apr-19 04:41 UTC.
Position N 30°19' W 027°37'.

Barometer 1022.9 mb

Date/timePositionNaut miles runAvg speedWind from/ knotsBaromVisibWave heightAir tempDewpointWater temp
2015-Apr-19 04:00N 30°19' W 027°37'8 0.5 1022.9
2015-Apr-18 11:00N 30°21' W 027°29'2 0.4 1022.5
2015-Apr-18 07:00N 30°20' W 027°27'0 0.0 1021.3
2015-Apr-18 06:00N 30°20' W 027°27'0 0.1 1021.1
2015-Apr-18 04:00N 30°20' W 027°27'7 0.6 1021.0
2015-Apr-17 16:00N 30°19' W 027°19'0 0.1 1021.6
2015-Apr-17 14:00N 30°19' W 027°19'1 1.0 1022.2
2015-Apr-17 13:00N 30°19' W 027°18'2 0.4 1022.5
2015-Apr-17 08:00N 30°17' W 027°16'1 0.8 1021.8
2015-Apr-17 07:00N 30°17' W 027°16'1 1.1 1021.7
2015-Apr-17 06:00N 30°16' W 027°15'0 0.0 1021.4
2015-Apr-17 05:00N 30°16' W 027°15'5 0.9 1021.3
2015-Apr-16 23:00N 30°13' W 027°10'1 0.3 1023.2
2015-Apr-16 19:00N 30°12' W 027°09'1 0.6 1022.2
2015-Apr-16 18:00N 30°12' W 027°10'0 0.0 1022.5
2015-Apr-16 17:00N 30°12' W 027°10'1 0.6 1022.9
2015-Apr-16 16:00N 30°12' W 027°09'1 0.5 1023.2
2015-Apr-16 13:00N 30°10' W 027°09'1 0.4 1024.5
2015-Apr-16 10:00N 30°10' W 027°08'1 0.6 1024.3
2015-Apr-16 09:00N 30°09' W 027°08'3 0.2 1023.7
2015-Apr-15 16:00N 30°06' W 027°06'0 0.4 1023.8
2015-Apr-15 15:00N 30°06' W 027°06'1 0.2 1024.1
2015-Apr-15 11:00N 30°05' W 027°06'1 0.2 1024.3
2015-Apr-15 07:00N 30°04' W 027°05'1 0.6 1023.6
2015-Apr-15 06:00N 30°04' W 027°06'1 0.3 1023.2
2015-Apr-15 03:00N 30°03' W 027°06'2 1.9 1024.4
2015-Apr-15 02:00N 30°02' W 027°04'2 0.5 1024.7
2015-Apr-14 22:00N 30°03' W 027°02'0 0.0 1025.0
2015-Apr-14 21:00N 30°03' W 027°02'1 0.7 1024.5
2015-Apr-14 19:00N 30°02' W 027°04'3 0.2 1023.8
2015-Apr-14 04:00N 30°01' W 027°01'4 0.3 1022.8
2015-Apr-13 14:00N 30°03' W 026°57'1 0.9 1023.7
2015-Apr-13 13:00N 30°04' W 026°56'0 0.3 1023.9
2015-Apr-13 12:00N 30°04' W 026°56'0 0.4 1024.0
2015-Apr-13 11:00N 30°04' W 026°56'1 0.7 1023.6
2015-Apr-13 09:00N 30°04' W 026°54'1 0.7 1023.3
2015-Apr-13 07:00N 30°04' W 026°53'0 0.2 1022.6
2015-Apr-13 05:00N 30°04' W 026°52'1 1.0 1022.4
2015-Apr-13 04:00N 30°04' W 026°51'6 0.6 1022.6
2015-Apr-12 18:00N 30°06' W 026°45'1 1.5 1021.8
2015-Apr-12 17:00N 30°07' W 026°43'1 0.1 1021.5
2015-Apr-12 08:00N 30°06' W 026°43'0 0.0 1022.1
2015-Apr-12 07:00N 30°06' W 026°43'0 0.2 1021.8
2015-Apr-12 05:00N 30°06' W 026°43'0 0.2 1022.1
2015-Apr-12 04:00N 30°06' W 026°43'1 0.3 1022.3
2015-Apr-11 23:00N 30°05' W 026°41'0 0.2 1024.2
2015-Apr-11 22:00N 30°05' W 026°42'0 0.4 1024.3
2015-Apr-11 21:00N 30°05' W 026°42'1 0.4 1023.9
2015-Apr-11 18:00N 30°04' W 026°41'0 0.5 1023.5
2015-Apr-11 17:00N 30°04' W 026°41'1 0.8 1023.7
2015-Apr-11 16:00N 30°03' W 026°41'0 0.3 1024.0
2015-Apr-11 15:00N 30°03' W 026°42'0 0.0 1024.6
2015-Apr-11 14:00N 30°03' W 026°42'2 0.6 1024.8
2015-Apr-11 11:00N 30°02' W 026°40'0 0.5 1025.8
2015-Apr-11 10:00N 30°01' W 026°40'3 0.6 1025.5
2015-Apr-11 05:00N 29°59' W 026°38'1 0.6 1025.6
2015-Apr-11 04:00N 29°58' W 026°38'3 0.6 1026.0
2015-Apr-10 22:00N 29°56' W 026°34'2 0.9 1027.0
2015-Apr-10 20:00N 29°55' W 026°34'0 0.0 1026.5
2015-Apr-10 19:00N 29°55' W 026°34'2 1.8 1026.3
2015-Apr-10 18:00N 29°55' W 026°32'0 0.5 1026.3
2015-Apr-10 17:00N 29°55' W 026°31'1 0.8 1026.5
2015-Apr-10 16:00N 29°55' W 026°32'5 0.7 1026.7
2015-Apr-10 08:00N 29°52' W 026°27'0 0.0 1026.5
2015-Apr-10 07:00N 29°52' W 026°27'1 0.5 1025.9
2015-Apr-10 05:00N 29°51' W 026°26'1 1.2 1025.5
2015-Apr-10 04:00N 29°51' W 026°24'3 0.6 1025.6
2015-Apr-09 22:00N 29°49' W 026°21'4 0.3 1026.5
2015-Apr-09 10:00N 29°48' W 026°17'0 0.2 1026.0
2015-Apr-09 08:00N 29°48' W 026°17'1 0.2 1024.8
2015-Apr-09 04:00N 29°47' W 026°16'   1024.6

Dump ship's entire track history